Time;durP1;ratioP1;P1;durP2;ratioP2;P2;SDS_P1;SDS_P2;PMS_P1;PMS_P2;Temp;Humidity;BMP_temperature;BMP_pressure;BME280_temperature;BME280_humidity;BME280_pressure;Samples;Min_cycle;Max_cycle;Signal;HPM_P1;HPM_P2
2021/01/15 00:01:40;;;;;;;14.03;10.78;;;;;;;-0.15;66.20;100866.47;1725430;82;21618;-45
2021/01/15 00:04:09;;;;;;;17.20;12.28;;;;;;;-0.11;66.32;100869.95;1738551;82;21716;-45
2021/01/15 00:06:37;;;;;;;15.20;11.20;;;;;;;-0.08;66.44;100861.05;1740548;82;21251;-45
2021/01/15 00:09:06;;;;;;;16.75;11.57;;;;;;;-0.06;66.50;100869.62;1748704;81;21180;-46
2021/01/15 00:11:35;;;;;;;14.43;10.50;;;;;;;-0.04;66.57;100869.23;1746473;81;21173;-45
2021/01/15 00:14:04;;;;;;;17.65;12.37;;;;;;;-0.04;66.67;100863.72;1712345;83;21170;-45
2021/01/15 00:16:33;;;;;;;15.38;11.38;;;;;;;-0.08;66.73;100872.16;1750108;81;21125;-45
2021/01/15 00:19:02;;;;;;;16.00;11.90;;;;;;;-0.15;66.78;100878.38;1704742;84;21162;-46
2021/01/15 00:21:34;;;;;;;17.80;12.45;;;;;;;-0.25;66.96;100881.13;1734925;82;21171;-45
2021/01/15 00:24:06;;;;;;;17.82;12.80;;;;;;;-0.30;67.21;100886.55;1717877;82;21205;-46
2021/01/15 00:26:34;;;;;;;16.35;13.08;;;;;;;-0.34;67.42;100886.44;1771017;80;21590;-46
2021/01/15 00:29:02;;;;;;;17.90;12.43;;;;;;;-0.32;67.57;100881.82;1782642;80;21152;-45
2021/01/15 00:31:34;;;;;;;20.57;13.55;;;;;;;-0.27;67.54;100889.17;1776752;80;21183;-45
2021/01/15 00:34:03;;;;;;;18.15;13.35;;;;;;;-0.19;67.45;100885.13;1776808;80;21151;-46
2021/01/15 00:36:31;;;;;;;21.68;13.25;;;;;;;-0.11;67.23;100886.17;1772400;80;21141;-46
2021/01/15 00:38:59;;;;;;;17.48;13.53;;;;;;;-0.04;67.15;100887.14;1716819;83;21170;-46
2021/01/15 00:41:28;;;;;;;18.37;12.70;;;;;;;0.03;67.07;100891.59;1773635;80;21144;-45
2021/01/15 00:43:56;;;;;;;19.62;14.65;;;;;;;0.08;66.98;100894.25;1768701;80;21291;-45
2021/01/15 00:46:31;;;;;;;18.65;14.30;;;;;;;0.14;66.88;100895.66;1773385;80;21169;-45
2021/01/15 00:49:03;;;;;;;23.83;14.68;;;;;;;0.18;66.76;100898.74;1774389;80;21172;-46
2021/01/15 00:51:35;;;;;;;23.30;15.10;;;;;;;0.17;66.71;100896.59;1776551;80;21163;-46
2021/01/15 00:54:04;;;;;;;19.25;14.85;;;;;;;0.16;66.79;100903.83;1783675;80;21140;-45
2021/01/15 00:56:34;;;;;;;18.67;14.05;;;;;;;0.16;66.80;100908.08;1774362;80;21306;-46
2021/01/15 00:59:04;;;;;;;18.90;13.83;;;;;;;0.13;66.83;100897.77;1716924;83;21170;-45
2021/01/15 01:01:35;;;;;;;21.90;14.33;;;;;;;0.08;66.78;100902.80;1769114;80;21141;-48
2021/01/15 01:04:05;;;;;;;17.40;13.70;;;;;;;0.06;66.99;100903.59;1757059;80;21164;-45
2021/01/15 01:06:34;;;;;;;20.88;14.50;;;;;;;0.04;67.03;100907.80;1775719;80;21152;-45
2021/01/15 01:09:03;;;;;;;18.75;14.25;;;;;;;-0.05;67.00;100904.21;1781135;80;21664;-46
2021/01/15 01:11:31;;;;;;;19.70;14.78;;;;;;;-0.08;67.27;100897.73;1779091;80;21128;-46
2021/01/15 01:14:00;;;;;;;19.90;14.33;;;;;;;-0.06;67.38;100897.35;1772905;80;21149;-45
2021/01/15 01:16:29;;;;;;;21.40;15.20;;;;;;;-0.03;67.52;100893.59;1717015;83;21162;-45
2021/01/15 01:18:58;;;;;;;19.75;14.25;;;;;;;0.04;67.57;100898.85;1770061;80;21164;-45
2021/01/15 01:21:26;;;;;;;19.52;14.18;;;;;;;0.09;67.71;100892.13;1769417;80;21624;-46
2021/01/15 01:23:55;;;;;;;20.75;14.30;;;;;;;0.15;67.71;100898.66;1768029;80;21132;-46
2021/01/15 01:26:25;;;;;;;19.12;14.68;;;;;;;0.19;67.48;100892.77;1765197;80;21315;-47
2021/01/15 01:28:53;;;;;;;23.35;15.58;;;;;;;0.23;67.46;100886.92;1709245;84;21211;-46
2021/01/15 01:31:21;;;;;;;20.80;13.25;;;;;;;0.26;67.43;100888.26;1768752;81;21133;-46
2021/01/15 01:33:50;;;;;;;20.40;14.03;;;;;;;0.29;67.33;100893.02;1775145;81;21157;-46
2021/01/15 01:36:19;;;;;;;19.62;13.90;;;;;;;0.32;67.14;100897.34;1765803;81;21142;-46
2021/01/15 01:38:47;;;;;;;20.05;14.33;;;;;;;0.33;66.99;100904.20;1709505;84;21567;-46
2021/01/15 01:41:15;;;;;;;17.52;12.53;;;;;;;0.34;66.94;100904.64;1765805;81;21577;-46
2021/01/15 01:43:44;;;;;;;16.65;12.43;;;;;;;0.34;66.72;100903.36;1757380;81;21172;-46
2021/01/15 01:46:12;;;;;;;16.73;11.83;;;;;;;0.33;66.54;100908.05;1771849;81;21185;-46
2021/01/15 01:48:41;;;;;;;15.90;12.05;;;;;;;0.31;66.31;100918.23;1770073;81;21606;-45
2021/01/15 01:51:10;;;;;;;15.60;11.68;;;;;;;0.26;65.75;100912.56;1703664;84;21339;-46
2021/01/15 01:53:39;;;;;;;15.80;11.20;;;;;;;0.08;65.49;100919.84;1771236;81;21303;-46
2021/01/15 01:56:08;;;;;;;15.13;11.05;;;;;;;-0.04;65.62;100920.40;1772222;81;21705;-46
2021/01/15 01:58:37;;;;;;;15.20;11.35;;;;;;;-0.12;65.47;100918.95;1764962;81;21181;-46
2021/01/15 02:01:06;;;;;;;14.83;11.48;;;;;;;-0.22;65.49;100914.45;1710022;84;21721;-45
2021/01/15 02:03:35;;;;;;;15.53;11.68;;;;;;;-0.25;65.60;100915.64;1769815;81;21303;-46
2021/01/15 02:06:05;;;;;;;16.80;11.63;;;;;;;-0.27;65.70;100917.30;1704279;84;21289;-45
2021/01/15 02:08:34;;;;;;;13.95;10.85;;;;;;;-0.28;65.75;100918.14;1715710;83;21754;-45
2021/01/15 02:11:40;;;;;;;17.57;11.97;;;;;;;-0.24;65.70;100915.23;1713645;83;21674;-46
2021/01/15 02:14:42;;;;;;;15.60;12.00;;;;;;;-0.19;65.44;100915.81;1771492;79;22590;-45
2021/01/15 02:17:15;;;;;;;15.05;11.35;;;;;;;-0.24;65.37;100915.23;1734261;82;21160;-45
2021/01/15 02:20:14;;;;;;;15.65;11.15;;;;;;;-0.24;65.14;100909.71;1749935;82;21703;-44
2021/01/15 02:23:06;;;;;;;18.87;12.93;;;;;;;-0.25;64.96;100916.92;1744168;82;21161;-44
2021/01/15 02:26:04;;;;;;;17.35;12.58;;;;;;;-0.27;64.82;100917.30;1741842;82;21207;-46
2021/01/15 02:29:01;;;;;;;17.30;12.07;;;;;;;-0.29;64.77;100921.51;1746004;82;21177;-46
2021/01/15 02:32:00;;;;;;;16.87;11.90;;;;;;;-0.32;64.68;100918.89;1737436;82;21140;-45
2021/01/15 02:34:57;;;;;;;19.52;12.75;;;;;;;-0.34;64.53;100928.22;1734947;82;21148;-44
2021/01/15 02:37:50;;;;;;;19.85;13.35;;;;;;;-0.36;64.64;100927.31;1740584;82;21314;-45
2021/01/15 02:40:30;;;;;;;17.95;13.13;;;;;;;-0.36;64.72;100919.64;1733214;82;21156;-45
2021/01/15 02:42:58;;;;;;;17.40;12.98;;;;;;;-0.40;64.85;100933.19;1751591;82;21152;-47
2021/01/15 02:45:27;;;;;;;19.65;13.95;;;;;;;-0.42;64.86;100931.00;1740490;82;21155;-46
2021/01/15 02:48:02;;;;;;;19.73;14.35;;;;;;;-0.45;65.03;100933.47;1740988;82;21144;-46
2021/01/15 02:50:32;;;;;;;20.27;15.00;;;;;;;-0.46;65.25;100933.44;1735188;82;21180;-46
2021/01/15 02:53:01;;;;;;;20.20;15.48;;;;;;;-0.44;65.43;100926.67;1743958;82;21128;-45
2021/01/15 02:55:29;;;;;;;23.27;15.72;;;;;;;-0.44;65.57;100935.21;1731900;82;21188;-46
2021/01/15 02:57:59;;;;;;;20.88;15.45;;;;;;;-0.46;65.52;100938.14;1743648;82;21135;-46
2021/01/15 03:00:27;;;;;;;19.02;13.68;;;;;;;-0.54;65.62;100933.66;1734994;82;21148;-46
2021/01/15 03:03:07;;;;;;;18.90;14.63;;;;;;;-0.58;65.92;100940.39;1738860;80;21121;-46
2021/01/15 03:05:49;;;;;;;19.30;14.95;;;;;;;-0.58;66.04;100928.89;1733443;82;21604;-46
2021/01/15 03:08:20;;;;;;;22.87;15.45;;;;;;;-0.55;66.20;100932.78;1687157;84;21183;-45
2021/01/15 03:10:49;;;;;;;19.27;14.87;;;;;;;-0.51;66.25;100930.76;1685623;84;21183;-47
2021/01/15 03:13:17;;;;;;;19.82;15.30;;;;;;;-0.48;66.36;100943.62;1674348;84;21963;-45
2021/01/15 03:15:48;;;;;;;23.50;15.03;;;;;;;-0.43;66.33;100945.00;1666191;85;21780;-47
2021/01/15 03:18:17;;;;;;;24.07;15.68;;;;;;;-0.40;66.21;100948.52;1667101;85;21180;-45
2021/01/15 03:20:45;;;;;;;20.50;14.93;;;;;;;-0.40;65.72;100943.41;1656913;85;21161;-45
2021/01/15 03:23:14;;;;;;;19.60;15.18;;;;;;;-0.38;65.24;100943.03;1668812;85;21346;-46
2021/01/15 03:25:42;;;;;;;20.17;14.75;;;;;;;-0.38;64.98;100940.48;1668001;85;21211;-46
2021/01/15 03:28:11;;;;;;;18.32;14.35;;;;;;;-0.39;64.84;100944.28;1665928;85;21346;-47
2021/01/15 03:30:39;;;;;;;19.15;14.35;;;;;;;-0.42;64.58;100947.62;1667070;85;21161;-47
2021/01/15 03:33:08;;;;;;;19.17;14.45;;;;;;;-0.42;64.47;100951.45;1666564;85;21224;-46
2021/01/15 03:35:37;;;;;;;19.25;14.55;;;;;;;-0.44;64.24;100956.94;1668484;85;21148;-46
2021/01/15 03:38:07;;;;;;;18.10;14.03;;;;;;;-0.46;63.93;100950.05;1668359;85;21596;-46
2021/01/15 03:40:43;;;;;;;20.37;13.75;;;;;;;-0.49;63.53;100953.39;1667541;85;21157;-46
2021/01/15 03:43:14;;;;;;;20.65;13.80;;;;;;;-0.51;63.10;100958.00;1654267;85;21172;-46
2021/01/15 03:45:49;;;;;;;18.15;13.53;;;;;;;-0.52;62.97;100949.49;1816098;77;23500;-45
2021/01/15 03:48:18;;;;;;;20.00;13.93;;;;;;;-0.60;63.01;100951.39;1759600;81;21129;-45
2021/01/15 03:50:47;;;;;;;21.25;15.35;;;;;;;-0.63;63.03;100957.28;1764461;81;21744;-45
2021/01/15 03:53:15;;;;;;;20.25;14.35;;;;;;;-0.69;63.17;100957.12;1765973;81;21602;-45
2021/01/15 03:55:44;;;;;;;23.30;14.60;;;;;;;-0.74;63.37;100962.50;1759799;81;21144;-45
2021/01/15 03:58:13;;;;;;;21.82;15.32;;;;;;;-0.76;63.64;100962.87;1763097;81;21584;-45
2021/01/15 04:00:41;;;;;;;19.60;14.07;;;;;;;-0.75;64.09;100968.86;1759378;81;21286;-45
2021/01/15 04:03:11;;;;;;;20.68;15.40;;;;;;;-0.77;64.38;100967.55;1761237;81;21127;-45
2021/01/15 04:05:39;;;;;;;21.17;15.72;;;;;;;-0.76;64.65;100970.55;1759506;81;21294;-45
2021/01/15 04:08:09;;;;;;;21.37;15.08;;;;;;;-0.73;64.63;100969.36;1750527;81;21144;-45
2021/01/15 04:10:39;;;;;;;24.37;16.02;;;;;;;-0.71;64.58;100971.55;1759621;81;21601;-45
2021/01/15 04:13:08;;;;;;;22.65;15.90;;;;;;;-0.70;64.42;100970.70;1768542;81;21313;-46
2021/01/15 04:15:37;;;;;;;19.30;13.70;;;;;;;-0.67;64.41;100973.36;1759534;81;21342;-46
2021/01/15 04:18:06;;;;;;;18.12;13.90;;;;;;;-0.66;64.35;100975.07;1746300;81;21715;-45
2021/01/15 04:20:34;;;;;;;22.58;14.98;;;;;;;-0.65;64.27;100965.72;1769111;81;21180;-45
2021/01/15 04:23:03;;;;;;;21.33;15.23;;;;;;;-0.65;64.45;100965.32;1759488;81;21165;-45
2021/01/15 04:25:31;;;;;;;23.12;16.85;;;;;;;-0.64;64.65;100967.47;1761715;81;21327;-45
2021/01/15 04:28:02;;;;;;;20.02;14.93;;;;;;;-0.65;64.98;100969.16;1754719;81;21288;-45
2021/01/15 04:30:31;;;;;;;19.85;14.68;;;;;;;-0.65;65.15;100969.55;1770204;81;21172;-46
2021/01/15 04:32:59;;;;;;;20.52;15.20;;;;;;;-0.68;65.35;100971.61;1752469;81;21179;-46
2021/01/15 04:35:28;;;;;;;19.07;14.40;;;;;;;-0.70;65.63;100970.70;1759933;81;21172;-46
2021/01/15 04:37:56;;;;;;;19.07;14.78;;;;;;;-0.73;65.77;100973.20;1774045;80;21192;-45
2021/01/15 04:40:25;;;;;;;23.27;15.05;;;;;;;-0.79;66.15;100975.59;1767830;81;21151;-45
2021/01/15 04:42:55;;;;;;;20.60;14.50;;;;;;;-0.86;66.52;100983.89;1759026;81;21156;-46
2021/01/15 04:45:24;;;;;;;17.75;13.93;;;;;;;-0.91;67.06;100986.75;1751737;81;21224;-45
2021/01/15 04:47:52;;;;;;;19.17;14.30;;;;;;;-0.91;67.26;100996.97;1723875;83;21174;-45
2021/01/15 04:50:21;;;;;;;21.15;15.28;;;;;;;-0.92;67.40;100997.38;1741213;82;21310;-45
2021/01/15 04:52:51;;;;;;;19.95;15.43;;;;;;;-0.90;67.48;100994.84;1733833;81;21140;-45
2021/01/15 04:55:22;;;;;;;20.97;15.48;;;;;;;-0.86;67.58;100991.55;1740422;82;21157;-45
2021/01/15 04:57:52;;;;;;;20.15;15.18;;;;;;;-0.83;67.52;100999.32;1719888;83;21160;-45
2021/01/15 05:00:25;;;;;;;21.87;16.27;;;;;;;-0.80;67.53;101013.44;1739792;82;21145;-45
2021/01/15 05:02:53;;;;;;;19.02;14.38;;;;;;;-0.85;67.65;101013.74;1719732;83;21158;-45
2021/01/15 05:05:24;;;;;;;18.65;14.23;;;;;;;-0.82;67.59;101020.20;1740018;82;21617;-45
2021/01/15 05:08:14;;;;;;;21.77;15.10;;;;;;;-0.82;67.54;101015.95;1720105;83;21567;-46
2021/01/15 05:10:45;;;;;;;19.65;14.38;;;;;;;-0.77;67.49;101016.50;1735286;82;21137;-46
2021/01/15 05:13:15;;;;;;;20.62;14.07;;;;;;;-0.71;67.44;101027.76;1718399;83;21617;-46
2021/01/15 05:15:47;;;;;;;19.82;15.18;;;;;;;-0.67;67.30;101037.24;1739916;82;21149;-46
2021/01/15 05:18:18;;;;;;;21.40;15.35;;;;;;;-0.65;67.20;101031.76;1737909;82;21604;-45
2021/01/15 05:20:47;;;;;;;21.73;16.23;;;;;;;-0.62;67.17;101034.41;1735871;82;21156;-46
2021/01/15 05:23:16;;;;;;;21.23;15.15;;;;;;;-0.58;67.22;101039.19;1742250;82;21176;-45
2021/01/15 05:25:46;;;;;;;20.88;15.60;;;;;;;-0.53;67.16;101047.42;1733501;83;21603;-44
2021/01/15 05:28:15;;;;;;;18.57;14.38;;;;;;;-0.47;67.11;101047.59;1742520;82;21148;-44
2021/01/15 05:30:43;;;;;;;20.62;15.90;;;;;;;-0.43;67.01;101048.13;1720955;83;21606;-47
2021/01/15 05:33:16;;;;;;;26.02;18.57;;;;;;;-0.39;67.01;101046.10;1743403;82;21121;-46
2021/01/15 05:35:53;;;;;;;27.58;20.75;;;;;;;-0.35;67.06;101055.58;1733313;83;21183;-44
2021/01/15 05:38:22;;;;;;;27.25;18.60;;;;;;;-0.31;67.03;101051.00;1739198;82;21187;-46
2021/01/15 05:40:58;;;;;;;23.87;17.60;;;;;;;-0.27;67.11;101055.38;1724294;83;21154;-44
2021/01/15 05:43:33;;;;;;;28.70;20.72;;;;;;;-0.22;67.14;101058.05;1723257;82;21160;-44
2021/01/15 05:46:07;;;;;;;25.60;18.42;;;;;;;-0.18;67.08;101058.18;1747310;82;21329;-45
2021/01/15 05:48:38;;;;;;;24.15;17.32;;;;;;;-0.14;67.01;101062.55;1766439;81;21781;-44
2021/01/15 05:51:07;;;;;;;24.07;16.48;;;;;;;-0.11;66.88;101065.20;1737154;82;21175;-45
2021/01/15 05:53:41;;;;;;;21.85;16.57;;;;;;;-0.08;66.72;101070.38;1720694;81;21159;-45
2021/01/15 05:56:09;;;;;;;22.27;15.95;;;;;;;-0.07;66.39;101073.81;1656239;86;21160;-46
2021/01/15 05:58:38;;;;;;;22.85;16.23;;;;;;;-0.08;66.13;101079.33;1671760;85;21341;-44
2021/01/15 06:01:06;;;;;;;25.37;16.93;;;;;;;-0.07;65.85;101082.36;1686378;84;21171;-44
2021/01/15 06:03:35;;;;;;;23.12;16.20;;;;;;;-0.06;65.55;101085.76;1685886;84;21168;-44
2021/01/15 06:06:04;;;;;;;22.37;16.17;;;;;;;-0.07;65.25;101087.47;1678081;84;21252;-44
2021/01/15 06:08:43;;;;;;;23.65;16.80;;;;;;;-0.08;64.96;101088.28;1684871;84;21215;-44
2021/01/15 06:11:23;;;;;;;23.12;16.75;;;;;;;-0.08;64.88;101098.52;1684557;84;21273;-44
2021/01/15 06:13:51;;;;;;;22.85;16.95;;;;;;;-0.09;64.86;101104.47;1691664;84;21294;-44
2021/01/15 06:16:19;;;;;;;23.77;16.70;;;;;;;-0.07;64.77;101109.22;1680475;84;21325;-47
2021/01/15 06:19:01;;;;;;;28.60;17.87;;;;;;;-0.06;64.66;101110.93;1682351;84;21321;-46
2021/01/15 06:21:31;;;;;;;22.55;16.00;;;;;;;-0.05;64.61;101108.84;1680456;84;21179;-46
2021/01/15 06:24:07;;;;;;;23.30;16.17;;;;;;;-0.03;64.44;101112.71;1683497;84;21658;-46
2021/01/15 06:26:41;;;;;;;21.12;16.10;;;;;;;0.03;64.33;101115.83;1771247;79;23174;-45
2021/01/15 06:29:12;;;;;;;22.00;14.58;;;;;;;-0.03;63.96;101111.03;1739318;82;21176;-45
2021/01/15 06:31:51;;;;;;;21.97;15.53;;;;;;;-0.01;63.82;101120.02;1735332;82;21152;-45
2021/01/15 06:34:19;;;;;;;19.15;14.78;;;;;;;-0.08;63.70;101124.09;1741434;82;21164;-45
2021/01/15 06:36:53;;;;;;;25.15;16.37;;;;;;;-0.15;63.63;101129.02;1734820;82;21148;-45
2021/01/15 06:39:22;;;;;;;26.48;16.02;;;;;;;-0.22;63.53;101138.20;1742006;82;21164;-45
2021/01/15 06:42:03;;;;;;;21.33;15.58;;;;;;;-0.27;63.67;101149.98;1740351;82;21112;-45
2021/01/15 06:44:32;;;;;;;22.80;17.05;;;;;;;-0.28;63.72;101153.78;1744621;82;21176;-46
2021/01/15 06:47:02;;;;;;;21.35;16.60;;;;;;;-0.28;63.97;101161.05;1736315;82;21160;-46
2021/01/15 06:49:31;;;;;;;;;;;;;;;-0.24;64.14;101173.09;1740707;82;21133;-45
2021/01/15 06:52:00;;;;;;;23.75;17.05;;;;;;;-0.16;64.40;101170.34;1740631;82;20141;-44
2021/01/15 06:54:38;;;;;;;26.37;17.37;;;;;;;-0.08;64.59;101168.86;1734491;82;21176;-44
2021/01/15 06:57:16;;;;;;;24.12;17.52;;;;;;;0.01;64.79;101172.08;1733846;81;21275;-45
2021/01/15 06:59:49;;;;;;;25.60;17.60;;;;;;;0.10;64.87;101176.59;1736787;82;21172;-45
2021/01/15 07:02:52;;;;;;;22.30;16.70;;;;;;;0.16;64.88;101176.34;1734569;82;21165;-45
2021/01/15 07:05:27;;;;;;;23.83;16.95;;;;;;;0.19;64.98;101169.13;1670125;85;21215;-45
2021/01/15 07:07:55;;;;;;;21.00;15.75;;;;;;;0.17;65.05;101174.22;1665430;85;21179;-45
2021/01/15 07:10:23;;;;;;;20.88;16.15;;;;;;;0.17;65.07;101174.62;1608269;88;21204;-45
2021/01/15 07:12:55;;;;;;;20.00;15.28;;;;;;;0.18;65.08;101176.37;1666327;84;21175;-45
2021/01/15 07:15:26;;;;;;;17.75;14.63;;;;;;;0.19;64.70;101190.89;1603930;88;21248;-45
2021/01/15 07:17:58;;;;;;;20.57;14.87;;;;;;;0.17;64.45;101189.98;1668907;85;21159;-45
2021/01/15 07:20:32;;;;;;;23.07;16.40;;;;;;;0.14;64.42;101191.19;1642908;87;21651;-45
2021/01/15 07:23:01;;;;;;;22.13;16.20;;;;;;;0.13;64.41;101192.00;1657844;85;21627;-46
2021/01/15 07:25:29;;;;;;;22.32;16.90;;;;;;;0.07;64.29;101196.95;1607441;87;21245;-45
2021/01/15 07:27:57;;;;;;;22.25;16.37;;;;;;;0.03;64.34;101199.85;1628418;87;21726;-46
2021/01/15 07:30:29;;;;;;;20.90;15.63;;;;;;;0.07;64.34;101196.95;1629148;87;21241;-45
2021/01/15 07:32:58;;;;;;;24.25;16.15;;;;;;;0.08;64.14;101198.70;1635501;87;21157;-45
2021/01/15 07:35:29;;;;;;;23.73;16.57;;;;;;;0.04;64.04;101197.77;1631380;87;21165;-45
2021/01/15 07:38:13;;;;;;;24.02;17.70;;;;;;;0.02;64.31;101198.54;1630962;87;21656;-46
2021/01/15 07:40:48;;;;;;;24.95;16.90;;;;;;;0.05;64.46;101194.77;1801809;79;23546;-45
2021/01/15 07:43:33;;;;;;;23.98;17.23;;;;;;;0.05;64.67;101203.72;1787733;80;21196;-45
2021/01/15 07:46:04;;;;;;;21.70;16.07;;;;;;;0.07;64.71;101202.07;1723558;83;21352;-46
2021/01/15 07:48:32;;;;;;;27.05;18.92;;;;;;;0.07;64.73;101199.52;1722956;83;21359;-45
2021/01/15 07:51:04;;;;;;;22.85;16.60;;;;;;;0.10;65.05;101212.41;1725407;83;21309;-46
2021/01/15 07:53:39;;;;;;;28.40;18.67;;;;;;;0.16;65.27;101204.89;1725360;83;21206;-46
2021/01/15 07:56:08;;;;;;;26.97;17.70;;;;;;;0.25;65.37;101217.95;1715742;83;21172;-45
2021/01/15 07:58:42;;;;;;;23.55;17.07;;;;;;;0.36;65.49;101216.52;1728582;83;21190;-45
2021/01/15 08:01:18;;;;;;;25.90;17.92;;;;;;;0.45;65.52;101221.91;1715026;83;21785;-45
2021/01/15 08:03:56;;;;;;;26.70;19.65;;;;;;;0.56;65.69;101226.86;1728190;83;21176;-45
2021/01/15 08:06:26;;;;;;;25.77;19.27;;;;;;;0.69;65.78;101227.64;1703886;83;21197;-45
2021/01/15 08:09:05;;;;;;;26.55;18.25;;;;;;;0.85;65.70;101234.88;1720109;83;21164;-45
2021/01/15 08:11:36;;;;;;;26.27;18.85;;;;;;;0.98;65.62;101233.08;1715986;83;21170;-45
2021/01/15 08:14:20;;;;;;;23.75;16.85;;;;;;;1.14;65.62;101242.86;1709663;83;21169;-46
2021/01/15 08:16:49;;;;;;;26.07;16.75;;;;;;;1.25;65.47;101238.00;1724063;83;21170;-45
2021/01/15 08:19:21;;;;;;;23.67;15.72;;;;;;;1.36;65.50;101240.41;1712778;83;21150;-46
2021/01/15 08:21:50;;;;;;;20.85;16.10;;;;;;;1.45;65.21;101240.59;1718926;83;21171;-45
2021/01/15 08:24:19;;;;;;;20.90;16.62;;;;;;;1.51;65.07;101236.47;1732228;83;21161;-46
2021/01/15 08:26:53;;;;;;;27.20;18.15;;;;;;;1.54;64.96;101236.56;1720677;83;21152;-45
2021/01/15 08:29:23;;;;;;;24.35;16.40;;;;;;;1.59;65.00;101240.08;1698585;84;21188;-46
2021/01/15 08:31:57;;;;;;;21.52;17.05;;;;;;;1.64;65.07;101242.75;1716729;83;21282;-45
2021/01/15 08:34:33;;;;;;;22.93;16.70;;;;;;;1.65;64.95;101246.62;1695686;84;21216;-45
2021/01/15 08:37:04;;;;;;;22.62;17.02;;;;;;;1.71;65.08;101251.45;1700570;83;21588;-45
2021/01/15 08:39:54;;;;;;;24.85;18.25;;;;;;;1.73;65.11;101253.63;1700648;83;21137;-45
2021/01/15 08:42:23;;;;;;;22.42;16.32;;;;;;;1.78;65.30;101253.30;1746839;82;21641;-45
2021/01/15 08:44:51;;;;;;;22.70;17.67;;;;;;;1.87;65.28;101260.79;1752747;82;21168;-45
2021/01/15 08:47:21;;;;;;;23.57;16.77;;;;;;;1.91;65.30;101265.56;1753202;82;21235;-45
2021/01/15 08:49:55;;;;;;;23.65;18.80;;;;;;;1.96;65.43;101280.66;1751959;82;21236;-46
2021/01/15 08:52:28;;;;;;;25.20;18.40;;;;;;;2.05;65.60;101284.68;1752339;82;21216;-46
2021/01/15 08:54:59;;;;;;;32.05;21.90;;;;;;;2.16;65.63;101285.78;1752429;82;21622;-46
2021/01/15 08:57:28;;;;;;;29.00;18.98;;;;;;;2.28;65.62;101284.73;1752489;82;21722;-46
2021/01/15 09:00:10;;;;;;;23.30;16.82;;;;;;;2.40;65.37;101286.26;1752226;82;21640;-46
2021/01/15 09:02:40;;;;;;;23.38;16.80;;;;;;;2.52;64.91;101285.62;1727272;82;21120;-46
2021/01/15 09:05:11;;;;;;;21.75;17.00;;;;;;;2.60;64.65;101284.93;1752267;82;21151;-46
2021/01/15 09:07:47;;;;;;;22.98;17.85;;;;;;;2.69;64.45;101290.25;1752202;82;21162;-46
2021/01/15 09:10:21;;;;;;;22.93;17.85;;;;;;;2.82;64.20;101286.20;1810054;79;22856;-45
2021/01/15 09:12:50;;;;;;;25.92;18.40;;;;;;;2.85;63.95;101292.26;1793332;80;21715;-47
2021/01/15 09:15:25;;;;;;;26.02;18.70;;;;;;;2.91;63.64;101291.08;1761889;81;21202;-45
2021/01/15 09:17:54;;;;;;;23.95;17.73;;;;;;;2.97;63.44;101283.47;1779961;80;21143;-45
2021/01/15 09:20:23;;;;;;;23.47;18.35;;;;;;;3.04;63.25;101291.75;1766160;80;21128;-45
2021/01/15 09:22:53;;;;;;;24.87;18.80;;;;;;;3.10;63.15;101294.42;1777259;80;21156;-46
2021/01/15 09:25:22;;;;;;;27.10;17.00;;;;;;;3.16;62.94;101291.08;1778160;80;21136;-46
2021/01/15 09:27:51;;;;;;;22.55;16.02;;;;;;;3.19;62.71;101302.27;1779320;80;21295;-45
2021/01/15 09:30:20;;;;;;;24.07;16.52;;;;;;;3.23;62.59;101305.37;1774928;80;21120;-46
2021/01/15 09:32:48;;;;;;;21.93;14.68;;;;;;;3.19;61.52;101295.84;1781976;80;21164;-45
2021/01/15 09:35:17;;;;;;;16.70;12.90;;;;;;;3.11;61.77;101298.70;1779362;80;21259;-45
2021/01/15 09:37:47;;;;;;;14.45;11.48;;;;;;;3.06;61.24;101301.64;1777284;80;21611;-45
2021/01/15 09:40:15;;;;;;;16.82;12.28;;;;;;;2.92;60.81;101301.83;1776609;80;21168;-46
2021/01/15 09:42:48;;;;;;;14.47;11.48;;;;;;;2.77;60.98;101304.11;1767068;80;21140;-45
2021/01/15 09:45:16;;;;;;;19.23;13.03;;;;;;;2.64;60.83;101306.44;1771205;80;21124;-46
2021/01/15 09:47:46;;;;;;;15.80;12.53;;;;;;;2.52;61.08;101304.47;1782057;80;21215;-45
2021/01/15 09:50:15;;;;;;;19.60;14.98;;;;;;;2.46;61.78;101303.07;1779339;80;21548;-46
2021/01/15 09:52:47;;;;;;;17.85;14.50;;;;;;;2.49;62.29;101298.02;1776996;80;21707;-45
2021/01/15 09:55:17;;;;;;;17.70;12.65;;;;;;;2.58;62.74;101299.45;1682151;85;21593;-45
2021/01/15 09:57:48;;;;;;;16.15;12.58;;;;;;;2.70;62.66;101300.12;1692006;85;21153;-45
2021/01/15 10:00:19;;;;;;;16.25;11.30;;;;;;;2.80;62.30;101301.61;1692055;85;21220;-45
2021/01/15 10:02:48;;;;;;;11.83;9.95;;;;;;;2.89;62.00;101301.75;1692219;85;21156;-45
2021/01/15 10:05:18;;;;;;;15.45;10.82;;;;;;;2.97;61.35;101295.45;1691804;85;21330;-46
2021/01/15 10:07:48;;;;;;;13.03;9.95;;;;;;;3.04;60.96;101287.89;1691979;85;21180;-45
2021/01/15 10:10:17;;;;;;;10.50;8.48;;;;;;;3.10;60.57;101293.14;1696223;84;21167;-45
2021/01/15 10:12:46;;;;;;;12.43;9.13;;;;;;;3.16;59.60;101284.23;1697439;84;21310;-45
2021/01/15 10:15:14;;;;;;;8.10;6.72;;;;;;;3.12;58.88;101283.74;1697104;84;21180;-45
2021/01/15 10:17:46;;;;;;;9.10;6.30;;;;;;;3.03;58.25;101287.44;1697389;84;21168;-45
2021/01/15 10:20:18;;;;;;;9.15;6.92;;;;;;;2.92;57.51;101279.10;1697111;84;21378;-46
2021/01/15 10:22:46;;;;;;;8.18;6.85;;;;;;;2.74;57.22;101283.48;1696781;84;21600;-47
2021/01/15 10:25:16;;;;;;;8.85;7.08;;;;;;;2.57;57.35;101282.32;1694136;84;21277;-46
2021/01/15 10:27:45;;;;;;;9.38;7.62;;;;;;;2.44;57.82;101272.64;1696550;84;21230;-44
2021/01/15 10:30:15;;;;;;;9.38;6.70;;;;;;;2.32;58.45;101277.55;1696521;84;21323;-45
2021/01/15 10:32:47;;;;;;;7.62;6.05;;;;;;;2.25;58.61;101280.81;1696590;84;21627;-44
2021/01/15 10:35:15;;;;;;;8.80;6.80;;;;;;;2.22;58.60;101279.48;1696648;84;21200;-45
2021/01/15 10:37:44;;;;;;;8.13;6.62;;;;;;;2.18;58.66;101278.97;1696615;84;21156;-44
2021/01/15 10:40:14;;;;;;;7.80;6.70;;;;;;;2.12;58.24;101278.85;1696619;84;21164;-45
2021/01/15 10:42:44;;;;;;;8.48;6.58;;;;;;;2.06;58.52;101283.42;1697058;84;21620;-44
2021/01/15 10:45:14;;;;;;;8.23;6.00;;;;;;;2.06;58.78;101284.70;1725165;80;21172;-45
2021/01/15 10:47:42;;;;;;;8.60;5.80;;;;;;;2.06;58.60;101279.56;1774236;80;21180;-44
2021/01/15 10:50:14;;;;;;;6.47;4.80;;;;;;;2.05;58.56;101300.08;1772883;80;21137;-44
2021/01/15 10:52:42;;;;;;;5.78;5.12;;;;;;;2.04;58.63;101284.24;1771124;80;21180;-44
2021/01/15 10:55:13;;;;;;;6.42;4.92;;;;;;;2.05;58.76;101284.27;1771263;80;21239;-45
2021/01/15 10:57:41;;;;;;;5.92;4.85;;;;;;;2.13;58.70;101283.13;1770831;80;21148;-45
2021/01/15 11:00:14;;;;;;;7.50;5.78;;;;;;;2.20;58.02;101287.57;1770933;80;21165;-44
2021/01/15 11:02:48;;;;;;;11.93;6.60;;;;;;;2.26;58.24;101279.99;1771246;80;21163;-44
2021/01/15 11:05:17;;;;;;;8.58;6.17;;;;;;;2.34;58.10;101283.16;1768015;80;21133;-45
2021/01/15 11:07:46;;;;;;;12.82;7.17;;;;;;;2.45;57.61;101287.23;1772827;80;21191;-44
2021/01/15 11:10:16;;;;;;;6.62;5.65;;;;;;;2.54;56.88;101284.81;1772348;80;21160;-45
2021/01/15 11:12:45;;;;;;;6.42;5.72;;;;;;;2.61;56.46;101290.53;1767652;80;21298;-45
2021/01/15 11:15:14;;;;;;;6.95;5.72;;;;;;;2.69;56.61;101285.11;1771910;80;21184;-44
2021/01/15 11:17:43;;;;;;;6.67;5.35;;;;;;;2.74;56.52;101293.75;1771729;80;21294;-44
2021/01/15 11:20:12;;;;;;;8.00;5.83;;;;;;;2.80;56.27;101288.76;1755693;80;21754;-45
2021/01/15 11:22:42;;;;;;;6.05;5.28;;;;;;;2.86;56.25;101303.00;1770314;80;21183;-47
2021/01/15 11:25:12;;;;;;;5.92;5.08;;;;;;;2.85;55.96;101290.09;1770999;80;21164;-46
2021/01/15 11:27:42;;;;;;;7.62;5.80;;;;;;;2.85;56.01;101294.83;1771728;80;21144;-45
2021/01/15 11:30:12;;;;;;;6.55;5.72;;;;;;;2.89;56.09;101293.17;1744502;80;21205;-46
2021/01/15 11:32:41;;;;;;;8.10;6.35;;;;;;;2.93;56.15;101298.40;1771713;80;21164;-46
2021/01/15 11:35:10;;;;;;;7.00;5.95;;;;;;;2.97;55.86;101297.61;1769389;80;21176;-46